sensor_id;sensor_type;location;lat;lon;timestamp;temperature;humidity
27164;DHT22;14685;50.618;7.024;2023-03-20T00:02:03;13.60;99.90
27164;DHT22;14685;50.618;7.024;2023-03-20T00:04:31;13.60;99.90
27164;DHT22;14685;50.618;7.024;2023-03-20T00:06:58;13.50;99.90
27164;DHT22;14685;50.618;7.024;2023-03-20T00:09:25;13.50;99.90
27164;DHT22;14685;50.618;7.024;2023-03-20T00:11:53;13.50;99.90
27164;DHT22;14685;50.618;7.024;2023-03-20T00:14:22;13.50;99.90
27164;DHT22;14685;50.618;7.024;2023-03-20T00:16:50;13.50;99.90
27164;DHT22;14685;50.618;7.024;2023-03-20T00:19:26;13.50;99.90
27164;DHT22;14685;50.618;7.024;2023-03-20T00:21:54;13.50;99.90
27164;DHT22;14685;50.618;7.024;2023-03-20T00:24:21;13.50;99.90
27164;DHT22;14685;50.618;7.024;2023-03-20T00:26:49;13.40;99.90
27164;DHT22;14685;50.618;7.024;2023-03-20T00:29:27;13.40;99.90
27164;DHT22;14685;50.618;7.024;2023-03-20T00:31:57;13.40;99.90
27164;DHT22;14685;50.618;7.024;2023-03-20T00:34:26;13.40;99.90
27164;DHT22;14685;50.618;7.024;2023-03-20T00:36:56;13.40;99.90
27164;DHT22;14685;50.618;7.024;2023-03-20T00:39:24;13.40;99.90
27164;DHT22;14685;50.618;7.024;2023-03-20T00:41:57;13.40;99.90
27164;DHT22;14685;50.618;7.024;2023-03-20T00:44:45;13.40;99.90
27164;DHT22;14685;50.618;7.024;2023-03-20T00:47:21;13.30;99.90
27164;DHT22;14685;50.618;7.024;2023-03-20T00:49:51;13.30;99.90
27164;DHT22;14685;50.618;7.024;2023-03-20T00:52:19;13.30;99.90
27164;DHT22;14685;50.618;7.024;2023-03-20T00:54:47;13.30;99.90
27164;DHT22;14685;50.618;7.024;2023-03-20T00:57:24;13.30;99.90
27164;DHT22;14685;50.618;7.024;2023-03-20T01:02:33;13.30;99.90
27164;DHT22;14685;50.618;7.024;2023-03-20T01:05:00;13.30;99.90
27164;DHT22;14685;50.618;7.024;2023-03-20T01:07:27;13.30;99.90
27164;DHT22;14685;50.618;7.024;2023-03-20T01:09:54;13.20;99.90
27164;DHT22;14685;50.618;7.024;2023-03-20T01:12:22;13.30;99.90
27164;DHT22;14685;50.618;7.024;2023-03-20T01:14:52;13.20;99.90
27164;DHT22;14685;50.618;7.024;2023-03-20T01:17:21;13.20;99.90
27164;DHT22;14685;50.618;7.024;2023-03-20T01:19:48;13.20;99.90
27164;DHT22;14685;50.618;7.024;2023-03-20T01:22:15;13.20;99.90
27164;DHT22;14685;50.618;7.024;2023-03-20T01:24:45;13.20;99.90
27164;DHT22;14685;50.618;7.024;2023-03-20T01:27:14;13.10;99.90
27164;DHT22;14685;50.618;7.024;2023-03-20T01:29:42;13.10;99.90
27164;DHT22;14685;50.618;7.024;2023-03-20T01:32:12;13.10;99.90
27164;DHT22;14685;50.618;7.024;2023-03-20T01:34:40;13.10;99.90
27164;DHT22;14685;50.618;7.024;2023-03-20T01:37:21;13.10;99.90
27164;DHT22;14685;50.618;7.024;2023-03-20T01:39:48;13.10;99.90
27164;DHT22;14685;50.618;7.024;2023-03-20T01:42:15;13.10;99.90
27164;DHT22;14685;50.618;7.024;2023-03-20T01:44:43;13.00;99.90
27164;DHT22;14685;50.618;7.024;2023-03-20T01:47:16;13.00;99.90
27164;DHT22;14685;50.618;7.024;2023-03-20T01:52:39;13.00;99.90
27164;DHT22;14685;50.618;7.024;2023-03-20T01:55:05;13.00;99.90
27164;DHT22;14685;50.618;7.024;2023-03-20T01:57:32;13.00;99.90
27164;DHT22;14685;50.618;7.024;2023-03-20T02:00:07;13.00;99.90
27164;DHT22;14685;50.618;7.024;2023-03-20T02:02:37;13.00;99.90
27164;DHT22;14685;50.618;7.024;2023-03-20T02:05:08;13.00;99.90
27164;DHT22;14685;50.618;7.024;2023-03-20T02:07:37;13.00;99.90
27164;DHT22;14685;50.618;7.024;2023-03-20T02:10:08;13.00;99.90
27164;DHT22;14685;50.618;7.024;2023-03-20T02:12:37;13.00;99.90
27164;DHT22;14685;50.618;7.024;2023-03-20T02:15:06;13.00;99.90
27164;DHT22;14685;50.618;7.024;2023-03-20T02:17:34;13.00;99.90
27164;DHT22;14685;50.618;7.024;2023-03-20T02:20:13;13.00;99.90
27164;DHT22;14685;50.618;7.024;2023-03-20T02:23:04;13.00;99.90
27164;DHT22;14685;50.618;7.024;2023-03-20T02:26:01;13.00;99.90
27164;DHT22;14685;50.618;7.024;2023-03-20T02:31:30;13.00;99.90
27164;DHT22;14685;50.618;7.024;2023-03-20T02:34:36;12.90;99.90
27164;DHT22;14685;50.618;7.024;2023-03-20T02:37:36;12.90;99.90
27164;DHT22;14685;50.618;7.024;2023-03-20T02:48:30;12.90;99.90
27164;DHT22;14685;50.618;7.024;2023-03-20T02:57:06;12.90;99.90
27164;DHT22;14685;50.618;7.024;2023-03-20T03:02:16;12.90;99.90
27164;DHT22;14685;50.618;7.024;2023-03-20T03:04:54;12.90;99.90
27164;DHT22;14685;50.618;7.024;2023-03-20T03:07:25;12.90;99.90
27164;DHT22;14685;50.618;7.024;2023-03-20T03:10:16;12.90;99.90
27164;DHT22;14685;50.618;7.024;2023-03-20T03:12:47;12.80;99.90
27164;DHT22;14685;50.618;7.024;2023-03-20T03:15:19;12.80;99.90
27164;DHT22;14685;50.618;7.024;2023-03-20T03:17:48;12.80;99.90
27164;DHT22;14685;50.618;7.024;2023-03-20T03:20:29;12.80;99.90
27164;DHT22;14685;50.618;7.024;2023-03-20T03:22:58;12.80;99.90
27164;DHT22;14685;50.618;7.024;2023-03-20T03:25:28;12.80;99.90
27164;DHT22;14685;50.618;7.024;2023-03-20T03:30:32;12.80;99.90
27164;DHT22;14685;50.618;7.024;2023-03-20T03:33:24;12.80;99.90
27164;DHT22;14685;50.618;7.024;2023-03-20T03:38:49;12.70;99.90
27164;DHT22;14685;50.618;7.024;2023-03-20T03:41:23;12.70;99.90
27164;DHT22;14685;50.618;7.024;2023-03-20T03:44:07;12.70;99.90
27164;DHT22;14685;50.618;7.024;2023-03-20T03:49:34;12.70;99.90
27164;DHT22;14685;50.618;7.024;2023-03-20T03:52:09;12.70;99.90
27164;DHT22;14685;50.618;7.024;2023-03-20T03:54:49;12.70;99.90
27164;DHT22;14685;50.618;7.024;2023-03-20T03:57:23;12.70;99.90
27164;DHT22;14685;50.618;7.024;2023-03-20T03:59:54;12.70;99.90
27164;DHT22;14685;50.618;7.024;2023-03-20T04:02:23;12.60;99.90
27164;DHT22;14685;50.618;7.024;2023-03-20T04:04:51;12.60;99.90
27164;DHT22;14685;50.618;7.024;2023-03-20T04:07:19;12.60;99.90
27164;DHT22;14685;50.618;7.024;2023-03-20T04:09:48;12.60;99.90
27164;DHT22;14685;50.618;7.024;2023-03-20T04:12:34;12.60;99.90
27164;DHT22;14685;50.618;7.024;2023-03-20T04:15:02;12.60;99.90
27164;DHT22;14685;50.618;7.024;2023-03-20T04:17:31;12.60;99.90
27164;DHT22;14685;50.618;7.024;2023-03-20T04:19:58;12.60;99.90
27164;DHT22;14685;50.618;7.024;2023-03-20T04:22:25;12.60;99.90
27164;DHT22;14685;50.618;7.024;2023-03-20T04:24:52;12.60;99.90
27164;DHT22;14685;50.618;7.024;2023-03-20T04:27:20;12.60;99.90
27164;DHT22;14685;50.618;7.024;2023-03-20T04:29:48;12.60;99.90
27164;DHT22;14685;50.618;7.024;2023-03-20T04:32:15;12.50;99.90
27164;DHT22;14685;50.618;7.024;2023-03-20T04:34:42;12.60;99.90
27164;DHT22;14685;50.618;7.024;2023-03-20T04:37:09;12.60;99.90
27164;DHT22;14685;50.618;7.024;2023-03-20T04:39:36;12.50;99.90
27164;DHT22;14685;50.618;7.024;2023-03-20T04:42:04;12.50;99.90
27164;DHT22;14685;50.618;7.024;2023-03-20T04:44:31;12.50;99.90
27164;DHT22;14685;50.618;7.024;2023-03-20T04:46:58;12.50;99.90
27164;DHT22;14685;50.618;7.024;2023-03-20T04:49:26;12.50;99.90
27164;DHT22;14685;50.618;7.024;2023-03-20T04:51:55;12.50;99.90
27164;DHT22;14685;50.618;7.024;2023-03-20T04:54:23;12.50;99.90
27164;DHT22;14685;50.618;7.024;2023-03-20T04:56:50;12.50;99.90
27164;DHT22;14685;50.618;7.024;2023-03-20T04:59:17;12.50;99.90
27164;DHT22;14685;50.618;7.024;2023-03-20T05:01:52;12.50;99.90
27164;DHT22;14685;50.618;7.024;2023-03-20T05:04:19;12.50;99.90
27164;DHT22;14685;50.618;7.024;2023-03-20T05:06:45;12.50;99.90
27164;DHT22;14685;50.618;7.024;2023-03-20T05:09:15;12.40;99.90
27164;DHT22;14685;50.618;7.024;2023-03-20T05:11:42;12.40;99.90
27164;DHT22;14685;50.618;7.024;2023-03-20T05:14:09;12.50;99.90
27164;DHT22;14685;50.618;7.024;2023-03-20T05:16:38;12.40;99.90
27164;DHT22;14685;50.618;7.024;2023-03-20T05:19:05;12.40;99.90
27164;DHT22;14685;50.618;7.024;2023-03-20T05:21:32;12.40;99.90
27164;DHT22;14685;50.618;7.024;2023-03-20T05:23:59;12.40;99.90
27164;DHT22;14685;50.618;7.024;2023-03-20T05:26:27;12.40;99.90
27164;DHT22;14685;50.618;7.024;2023-03-20T05:28:54;12.40;99.90
27164;DHT22;14685;50.618;7.024;2023-03-20T05:31:21;12.40;99.90
27164;DHT22;14685;50.618;7.024;2023-03-20T05:33:50;12.40;99.90
27164;DHT22;14685;50.618;7.024;2023-03-20T05:36:18;12.40;99.90
27164;DHT22;14685;50.618;7.024;2023-03-20T05:38:45;12.40;99.90
27164;DHT22;14685;50.618;7.024;2023-03-20T05:41:12;12.40;99.90
27164;DHT22;14685;50.618;7.024;2023-03-20T05:43:39;12.30;99.90
27164;DHT22;14685;50.618;7.024;2023-03-20T05:46:06;12.30;99.90
27164;DHT22;14685;50.618;7.024;2023-03-20T05:48:32;12.30;99.90
27164;DHT22;14685;50.618;7.024;2023-03-20T05:51:01;12.20;99.90
27164;DHT22;14685;50.618;7.024;2023-03-20T05:53:28;12.30;99.90
27164;DHT22;14685;50.618;7.024;2023-03-20T05:55:54;12.20;99.90
27164;DHT22;14685;50.618;7.024;2023-03-20T05:58:21;12.20;99.90
27164;DHT22;14685;50.618;7.024;2023-03-20T06:00:49;12.20;99.90
27164;DHT22;14685;50.618;7.024;2023-03-20T06:03:16;12.20;99.90
27164;DHT22;14685;50.618;7.024;2023-03-20T06:05:43;12.20;99.90
27164;DHT22;14685;50.618;7.024;2023-03-20T06:08:10;12.20;99.90
27164;DHT22;14685;50.618;7.024;2023-03-20T06:10:37;12.10;99.90
27164;DHT22;14685;50.618;7.024;2023-03-20T06:13:04;12.10;99.90
27164;DHT22;14685;50.618;7.024;2023-03-20T06:15:32;12.10;99.90
27164;DHT22;14685;50.618;7.024;2023-03-20T06:18:00;12.10;99.90
27164;DHT22;14685;50.618;7.024;2023-03-20T06:20:26;12.00;99.90
27164;DHT22;14685;50.618;7.024;2023-03-20T06:22:53;12.00;99.90
27164;DHT22;14685;50.618;7.024;2023-03-20T08:23:58;12.80;99.90
27164;DHT22;14685;50.618;7.024;2023-03-20T08:26:26;12.70;99.90
27164;DHT22;14685;50.618;7.024;2023-03-20T08:28:52;12.80;99.90
27164;DHT22;14685;50.618;7.024;2023-03-20T08:31:19;12.80;99.90
27164;DHT22;14685;50.618;7.024;2023-03-20T08:33:46;12.80;99.90
27164;DHT22;14685;50.618;7.024;2023-03-20T08:36:14;12.90;99.90
27164;DHT22;14685;50.618;7.024;2023-03-20T08:38:41;12.90;99.90
27164;DHT22;14685;50.618;7.024;2023-03-20T08:41:08;12.90;99.90
27164;DHT22;14685;50.618;7.024;2023-03-20T08:43:35;12.90;99.90
27164;DHT22;14685;50.618;7.024;2023-03-20T08:46:03;12.90;99.90
27164;DHT22;14685;50.618;7.024;2023-03-20T08:48:30;12.90;99.90
27164;DHT22;14685;50.618;7.024;2023-03-20T08:50:56;13.00;99.90
27164;DHT22;14685;50.618;7.024;2023-03-20T08:53:23;13.00;99.90
27164;DHT22;14685;50.618;7.024;2023-03-20T08:55:53;13.00;99.90
27164;DHT22;14685;50.618;7.024;2023-03-20T08:58:20;13.10;99.90
27164;DHT22;14685;50.618;7.024;2023-03-20T09:00:48;13.10;99.90
27164;DHT22;14685;50.618;7.024;2023-03-20T09:03:18;13.10;99.90
27164;DHT22;14685;50.618;7.024;2023-03-20T09:05:47;13.10;99.90
27164;DHT22;14685;50.618;7.024;2023-03-20T09:08:14;13.10;99.90
27164;DHT22;14685;50.618;7.024;2023-03-20T09:10:42;13.20;99.90
27164;DHT22;14685;50.618;7.024;2023-03-20T09:13:09;13.20;99.90
27164;DHT22;14685;50.618;7.024;2023-03-20T09:15:53;13.20;99.90
27164;DHT22;14685;50.618;7.024;2023-03-20T09:18:21;13.20;99.90
27164;DHT22;14685;50.618;7.024;2023-03-20T09:20:48;13.30;99.90
27164;DHT22;14685;50.618;7.024;2023-03-20T09:23:16;13.30;99.90
27164;DHT22;14685;50.618;7.024;2023-03-20T09:25:43;13.30;99.90
27164;DHT22;14685;50.618;7.024;2023-03-20T09:28:10;13.30;99.90
27164;DHT22;14685;50.618;7.024;2023-03-20T09:30:37;13.30;99.90
27164;DHT22;14685;50.618;7.024;2023-03-20T09:33:04;13.40;99.90
27164;DHT22;14685;50.618;7.024;2023-03-20T09:35:40;13.40;99.90
27164;DHT22;14685;50.618;7.024;2023-03-20T09:38:09;13.50;99.90
27164;DHT22;14685;50.618;7.024;2023-03-20T09:40:53;13.50;99.90
27164;DHT22;14685;50.618;7.024;2023-03-20T09:43:41;13.60;99.90
27164;DHT22;14685;50.618;7.024;2023-03-20T09:49:33;13.70;99.90
27164;DHT22;14685;50.618;7.024;2023-03-20T09:54:55;13.50;99.90
27164;DHT22;14685;50.618;7.024;2023-03-20T09:57:26;13.50;99.90
27164;DHT22;14685;50.618;7.024;2023-03-20T10:00:00;13.50;99.90
27164;DHT22;14685;50.618;7.024;2023-03-20T10:07:44;13.60;99.90
27164;DHT22;14685;50.618;7.024;2023-03-20T10:10:13;13.60;99.90
27164;DHT22;14685;50.618;7.024;2023-03-20T10:18:26;13.60;99.90
27164;DHT22;14685;50.618;7.024;2023-03-20T10:23:34;13.70;99.90
27164;DHT22;14685;50.618;7.024;2023-03-20T10:26:05;13.70;99.90
27164;DHT22;14685;50.618;7.024;2023-03-20T10:28:42;13.70;99.90
27164;DHT22;14685;50.618;7.024;2023-03-20T10:31:27;13.70;99.90
27164;DHT22;14685;50.618;7.024;2023-03-20T10:34:05;13.70;99.90
27164;DHT22;14685;50.618;7.024;2023-03-20T10:39:19;13.80;99.90
27164;DHT22;14685;50.618;7.024;2023-03-20T10:41:52;13.90;99.90
27164;DHT22;14685;50.618;7.024;2023-03-20T10:44:30;13.90;99.90
27164;DHT22;14685;50.618;7.024;2023-03-20T10:47:00;13.90;99.90
27164;DHT22;14685;50.618;7.024;2023-03-20T10:49:37;13.90;99.90
27164;DHT22;14685;50.618;7.024;2023-03-20T10:52:14;14.00;99.90
27164;DHT22;14685;50.618;7.024;2023-03-20T10:54:45;14.10;99.90
27164;DHT22;14685;50.618;7.024;2023-03-20T10:57:22;14.10;99.90
27164;DHT22;14685;50.618;7.024;2023-03-20T10:59:51;14.10;99.90
27164;DHT22;14685;50.618;7.024;2023-03-20T11:02:21;14.10;99.90
27164;DHT22;14685;50.618;7.024;2023-03-20T11:04:49;14.10;99.90
27164;DHT22;14685;50.618;7.024;2023-03-20T11:10:16;14.10;99.90
27164;DHT22;14685;50.618;7.024;2023-03-20T11:12:47;14.20;99.90
27164;DHT22;14685;50.618;7.024;2023-03-20T11:15:32;14.10;99.90
27164;DHT22;14685;50.618;7.024;2023-03-20T11:18:11;14.20;99.90
27164;DHT22;14685;50.618;7.024;2023-03-20T11:20:48;14.20;99.90
27164;DHT22;14685;50.618;7.024;2023-03-20T11:23:33;14.10;99.90
27164;DHT22;14685;50.618;7.024;2023-03-20T11:28:40;14.10;99.90
27164;DHT22;14685;50.618;7.024;2023-03-20T11:33:42;14.10;99.90
27164;DHT22;14685;50.618;7.024;2023-03-20T11:36:30;14.20;99.90
27164;DHT22;14685;50.618;7.024;2023-03-20T11:44:30;14.20;99.90
27164;DHT22;14685;50.618;7.024;2023-03-20T11:47:05;14.20;99.90
27164;DHT22;14685;50.618;7.024;2023-03-20T11:49:45;14.10;99.90
27164;DHT22;14685;50.618;7.024;2023-03-20T11:52:16;14.10;99.90
27164;DHT22;14685;50.618;7.024;2023-03-20T11:54:48;14.10;99.90
27164;DHT22;14685;50.618;7.024;2023-03-20T11:59:55;14.20;99.90
27164;DHT22;14685;50.618;7.024;2023-03-20T12:02:25;14.10;99.90
27164;DHT22;14685;50.618;7.024;2023-03-20T12:04:53;14.10;99.90
27164;DHT22;14685;50.618;7.024;2023-03-20T12:10:11;14.20;99.90
27164;DHT22;14685;50.618;7.024;2023-03-20T12:12:44;14.20;99.90
27164;DHT22;14685;50.618;7.024;2023-03-20T12:15:33;14.30;99.90
27164;DHT22;14685;50.618;7.024;2023-03-20T12:18:30;14.30;99.90
27164;DHT22;14685;50.618;7.024;2023-03-20T12:21:25;14.30;99.90
27164;DHT22;14685;50.618;7.024;2023-03-20T12:26:35;14.20;99.90
27164;DHT22;14685;50.618;7.024;2023-03-20T12:31:45;14.10;99.90
27164;DHT22;14685;50.618;7.024;2023-03-20T12:34:20;14.10;99.90
27164;DHT22;14685;50.618;7.024;2023-03-20T12:36:50;14.20;99.90
27164;DHT22;14685;50.618;7.024;2023-03-20T12:39:37;14.20;99.90
27164;DHT22;14685;50.618;7.024;2023-03-20T12:52:58;14.10;99.90
27164;DHT22;14685;50.618;7.024;2023-03-20T12:55:56;14.10;99.90
27164;DHT22;14685;50.618;7.024;2023-03-20T12:58:46;14.10;99.90
27164;DHT22;14685;50.618;7.024;2023-03-20T13:04:17;14.20;99.90
27164;DHT22;14685;50.618;7.024;2023-03-20T13:06:53;14.20;99.90
27164;DHT22;14685;50.618;7.024;2023-03-20T13:09:50;14.10;99.90
27164;DHT22;14685;50.618;7.024;2023-03-20T13:12:26;14.20;99.90
27164;DHT22;14685;50.618;7.024;2023-03-20T13:18:39;14.10;99.90
27164;DHT22;14685;50.618;7.024;2023-03-20T13:21:12;14.10;99.90
27164;DHT22;14685;50.618;7.024;2023-03-20T13:23:51;14.20;99.90
27164;DHT22;14685;50.618;7.024;2023-03-20T13:26:34;14.10;99.90
27164;DHT22;14685;50.618;7.024;2023-03-20T13:35:16;13.80;99.90
27164;DHT22;14685;50.618;7.024;2023-03-20T13:37:56;13.80;99.90
27164;DHT22;14685;50.618;7.024;2023-03-20T13:40:32;13.80;99.90
27164;DHT22;14685;50.618;7.024;2023-03-20T13:43:23;13.80;99.90
27164;DHT22;14685;50.618;7.024;2023-03-20T13:46:05;13.80;99.90
27164;DHT22;14685;50.618;7.024;2023-03-20T13:48:39;13.80;99.90
27164;DHT22;14685;50.618;7.024;2023-03-20T13:51:14;13.90;99.90
27164;DHT22;14685;50.618;7.024;2023-03-20T13:54:00;14.00;99.90
27164;DHT22;14685;50.618;7.024;2023-03-20T14:02:15;13.90;99.90
27164;DHT22;14685;50.618;7.024;2023-03-20T14:04:49;14.00;99.90
27164;DHT22;14685;50.618;7.024;2023-03-20T14:07:28;14.10;99.90
27164;DHT22;14685;50.618;7.024;2023-03-20T14:09:55;14.00;99.90
27164;DHT22;14685;50.618;7.024;2023-03-20T14:12:24;13.90;99.90
27164;DHT22;14685;50.618;7.024;2023-03-20T14:14:55;13.80;99.90
27164;DHT22;14685;50.618;7.024;2023-03-20T14:17:28;13.70;99.90
27164;DHT22;14685;50.618;7.024;2023-03-20T14:19:57;13.70;99.90
27164;DHT22;14685;50.618;7.024;2023-03-20T14:22:38;13.70;99.90
27164;DHT22;14685;50.618;7.024;2023-03-20T14:25:16;13.70;99.90
27164;DHT22;14685;50.618;7.024;2023-03-20T14:27:54;13.70;99.90
27164;DHT22;14685;50.618;7.024;2023-03-20T14:33:06;13.60;99.90
27164;DHT22;14685;50.618;7.024;2023-03-20T14:35:37;13.60;99.90
27164;DHT22;14685;50.618;7.024;2023-03-20T14:38:19;13.70;99.90
27164;DHT22;14685;50.618;7.024;2023-03-20T14:46:47;14.00;99.90
27164;DHT22;14685;50.618;7.024;2023-03-20T14:48:51;14.00;99.90
27164;DHT22;14685;50.618;7.024;2023-03-20T14:51:29;14.00;99.90
27164;DHT22;14685;50.618;7.024;2023-03-20T14:56:51;13.90;99.90
27164;DHT22;14685;50.618;7.024;2023-03-20T14:59:22;13.80;99.90
27164;DHT22;14685;50.618;7.024;2023-03-20T15:01:59;13.80;99.90
27164;DHT22;14685;50.618;7.024;2023-03-20T15:04:40;13.70;99.90
27164;DHT22;14685;50.618;7.024;2023-03-20T15:09:40;13.60;99.90
27164;DHT22;14685;50.618;7.024;2023-03-20T15:12:18;13.60;99.90
27164;DHT22;14685;50.618;7.024;2023-03-20T15:14:52;13.60;99.90
27164;DHT22;14685;50.618;7.024;2023-03-20T15:20:16;13.80;99.90
27164;DHT22;14685;50.618;7.024;2023-03-20T15:25:20;13.80;99.90
27164;DHT22;14685;50.618;7.024;2023-03-20T15:27:50;13.90;99.90
27164;DHT22;14685;50.618;7.024;2023-03-20T15:30:19;13.90;99.90
27164;DHT22;14685;50.618;7.024;2023-03-20T15:32:53;14.00;99.90
27164;DHT22;14685;50.618;7.024;2023-03-20T15:35:22;14.00;99.90
27164;DHT22;14685;50.618;7.024;2023-03-20T15:37:53;13.90;99.90
27164;DHT22;14685;50.618;7.024;2023-03-20T15:40:27;14.00;99.90
27164;DHT22;14685;50.618;7.024;2023-03-20T15:43:17;14.10;99.90
27164;DHT22;14685;50.618;7.024;2023-03-20T15:45:46;14.10;99.90
27164;DHT22;14685;50.618;7.024;2023-03-20T15:48:17;14.00;99.90
27164;DHT22;14685;50.618;7.024;2023-03-20T15:50:53;14.00;99.90
27164;DHT22;14685;50.618;7.024;2023-03-20T15:53:35;13.90;99.90
27164;DHT22;14685;50.618;7.024;2023-03-20T15:56:06;14.00;99.90
27164;DHT22;14685;50.618;7.024;2023-03-20T15:58:45;13.90;99.90
27164;DHT22;14685;50.618;7.024;2023-03-20T16:01:18;13.90;99.90
27164;DHT22;14685;50.618;7.024;2023-03-20T16:03:46;13.80;99.90
27164;DHT22;14685;50.618;7.024;2023-03-20T16:06:18;13.90;99.90
27164;DHT22;14685;50.618;7.024;2023-03-20T16:08:56;13.80;99.90
27164;DHT22;14685;50.618;7.024;2023-03-20T16:11:24;13.70;99.90
27164;DHT22;14685;50.618;7.024;2023-03-20T16:13:52;13.70;99.90
27164;DHT22;14685;50.618;7.024;2023-03-20T16:16:22;13.70;99.90
27164;DHT22;14685;50.618;7.024;2023-03-20T16:18:50;13.50;99.90
27164;DHT22;14685;50.618;7.024;2023-03-20T16:21:19;13.50;99.90
27164;DHT22;14685;50.618;7.024;2023-03-20T16:23:50;13.50;99.90
27164;DHT22;14685;50.618;7.024;2023-03-20T16:26:20;13.60;99.90
27164;DHT22;14685;50.618;7.024;2023-03-20T16:28:53;13.60;99.90
27164;DHT22;14685;50.618;7.024;2023-03-20T16:31:31;13.60;99.90
27164;DHT22;14685;50.618;7.024;2023-03-20T16:34:07;13.60;99.90
27164;DHT22;14685;50.618;7.024;2023-03-20T16:36:36;13.60;99.90
27164;DHT22;14685;50.618;7.024;2023-03-20T16:39:08;13.60;99.90
27164;DHT22;14685;50.618;7.024;2023-03-20T16:41:39;13.60;99.90
27164;DHT22;14685;50.618;7.024;2023-03-20T16:44:13;13.60;99.90
27164;DHT22;14685;50.618;7.024;2023-03-20T16:51:57;13.60;99.90
27164;DHT22;14685;50.618;7.024;2023-03-20T16:54:30;13.60;99.90
27164;DHT22;14685;50.618;7.024;2023-03-20T16:57:00;13.60;99.90
27164;DHT22;14685;50.618;7.024;2023-03-20T16:59:29;13.70;99.90
27164;DHT22;14685;50.618;7.024;2023-03-20T17:01:59;13.70;99.90
27164;DHT22;14685;50.618;7.024;2023-03-20T17:04:33;13.80;99.90
27164;DHT22;14685;50.618;7.024;2023-03-20T17:09:52;13.80;99.90
27164;DHT22;14685;50.618;7.024;2023-03-20T17:12:19;13.80;99.90
27164;DHT22;14685;50.618;7.024;2023-03-20T17:14:46;13.80;99.90
27164;DHT22;14685;50.618;7.024;2023-03-20T17:17:18;13.80;99.90
27164;DHT22;14685;50.618;7.024;2023-03-20T17:19:49;13.80;99.90
27164;DHT22;14685;50.618;7.024;2023-03-20T17:22:22;13.80;99.90
27164;DHT22;14685;50.618;7.024;2023-03-20T17:24:49;13.80;99.90
27164;DHT22;14685;50.618;7.024;2023-03-20T17:27:19;13.80;99.90
27164;DHT22;14685;50.618;7.024;2023-03-20T17:29:47;13.80;99.90
27164;DHT22;14685;50.618;7.024;2023-03-20T17:32:19;13.80;99.90
27164;DHT22;14685;50.618;7.024;2023-03-20T17:34:50;13.80;99.90
27164;DHT22;14685;50.618;7.024;2023-03-20T17:37:23;13.80;99.90
27164;DHT22;14685;50.618;7.024;2023-03-20T17:39:51;13.70;99.90
27164;DHT22;14685;50.618;7.024;2023-03-20T17:42:23;13.80;99.90
27164;DHT22;14685;50.618;7.024;2023-03-20T17:44:52;13.80;99.90
27164;DHT22;14685;50.618;7.024;2023-03-20T17:47:21;13.70;99.90
27164;DHT22;14685;50.618;7.024;2023-03-20T17:49:54;13.70;99.90
27164;DHT22;14685;50.618;7.024;2023-03-20T17:52:25;13.70;99.90
27164;DHT22;14685;50.618;7.024;2023-03-20T17:54:52;13.70;99.90
27164;DHT22;14685;50.618;7.024;2023-03-20T17:57:33;13.70;99.90
27164;DHT22;14685;50.618;7.024;2023-03-20T18:00:04;13.70;99.90
27164;DHT22;14685;50.618;7.024;2023-03-20T18:02:33;13.60;99.90
27164;DHT22;14685;50.618;7.024;2023-03-20T18:05:01;13.60;99.90
27164;DHT22;14685;50.618;7.024;2023-03-20T18:07:29;13.60;99.90
27164;DHT22;14685;50.618;7.024;2023-03-20T18:09:57;13.60;99.90
27164;DHT22;14685;50.618;7.024;2023-03-20T18:12:25;13.60;99.90
27164;DHT22;14685;50.618;7.024;2023-03-20T18:14:51;13.60;99.90
27164;DHT22;14685;50.618;7.024;2023-03-20T18:17:18;13.60;99.90
27164;DHT22;14685;50.618;7.024;2023-03-20T18:19:45;13.60;99.90
27164;DHT22;14685;50.618;7.024;2023-03-20T18:22:12;13.70;99.90
27164;DHT22;14685;50.618;7.024;2023-03-20T18:24:41;13.70;99.90
27164;DHT22;14685;50.618;7.024;2023-03-20T18:27:11;13.60;99.90
27164;DHT22;14685;50.618;7.024;2023-03-20T18:29:37;13.60;99.90
27164;DHT22;14685;50.618;7.024;2023-03-20T18:32:04;13.60;99.90
27164;DHT22;14685;50.618;7.024;2023-03-20T18:34:34;13.60;99.90
27164;DHT22;14685;50.618;7.024;2023-03-20T18:37:01;13.60;99.90
27164;DHT22;14685;50.618;7.024;2023-03-20T18:39:31;13.60;99.90
27164;DHT22;14685;50.618;7.024;2023-03-20T18:41:58;13.60;99.90
27164;DHT22;14685;50.618;7.024;2023-03-20T18:44:25;13.60;99.90
27164;DHT22;14685;50.618;7.024;2023-03-20T18:46:53;13.70;99.90
27164;DHT22;14685;50.618;7.024;2023-03-20T18:49:20;13.70;99.90
27164;DHT22;14685;50.618;7.024;2023-03-20T18:51:47;13.70;99.90
27164;DHT22;14685;50.618;7.024;2023-03-20T18:54:15;13.70;99.90
27164;DHT22;14685;50.618;7.024;2023-03-20T18:56:45;13.70;99.90
27164;DHT22;14685;50.618;7.024;2023-03-20T18:59:16;13.80;99.90
27164;DHT22;14685;50.618;7.024;2023-03-20T19:01:44;13.80;99.90
27164;DHT22;14685;50.618;7.024;2023-03-20T19:04:11;13.80;99.90
27164;DHT22;14685;50.618;7.024;2023-03-20T19:06:38;13.80;99.90
27164;DHT22;14685;50.618;7.024;2023-03-20T19:09:06;13.80;99.90
27164;DHT22;14685;50.618;7.024;2023-03-20T19:11:38;13.80;99.90
27164;DHT22;14685;50.618;7.024;2023-03-20T19:14:05;13.80;99.90
27164;DHT22;14685;50.618;7.024;2023-03-20T19:16:34;13.80;99.90
27164;DHT22;14685;50.618;7.024;2023-03-20T19:19:04;13.80;99.90
27164;DHT22;14685;50.618;7.024;2023-03-20T19:21:33;13.80;99.90
27164;DHT22;14685;50.618;7.024;2023-03-20T19:24:02;13.80;99.90
27164;DHT22;14685;50.618;7.024;2023-03-20T19:26:32;13.90;99.90
27164;DHT22;14685;50.618;7.024;2023-03-20T19:29:00;13.80;99.90
27164;DHT22;14685;50.618;7.024;2023-03-20T19:31:35;13.90;99.90
27164;DHT22;14685;50.618;7.024;2023-03-20T19:34:03;13.90;99.90
27164;DHT22;14685;50.618;7.024;2023-03-20T19:36:35;13.80;99.90
27164;DHT22;14685;50.618;7.024;2023-03-20T19:39:05;13.90;99.90
27164;DHT22;14685;50.618;7.024;2023-03-20T19:41:33;13.80;99.90
27164;DHT22;14685;50.618;7.024;2023-03-20T19:44:00;13.80;99.90
27164;DHT22;14685;50.618;7.024;2023-03-20T19:46:32;13.80;99.90
27164;DHT22;14685;50.618;7.024;2023-03-20T19:49:17;13.80;99.90
27164;DHT22;14685;50.618;7.024;2023-03-20T19:51:46;13.80;99.90
27164;DHT22;14685;50.618;7.024;2023-03-20T19:54:14;13.80;99.90
27164;DHT22;14685;50.618;7.024;2023-03-20T19:56:43;13.80;99.90
27164;DHT22;14685;50.618;7.024;2023-03-20T19:59:10;13.80;99.90
27164;DHT22;14685;50.618;7.024;2023-03-20T20:01:42;13.80;99.90
27164;DHT22;14685;50.618;7.024;2023-03-20T20:04:09;13.80;99.90
27164;DHT22;14685;50.618;7.024;2023-03-20T20:06:37;13.70;99.90
27164;DHT22;14685;50.618;7.024;2023-03-20T20:09:06;13.70;99.90
27164;DHT22;14685;50.618;7.024;2023-03-20T20:11:33;13.70;99.90
27164;DHT22;14685;50.618;7.024;2023-03-20T20:14:01;13.70;99.90